Time;durP1;ratioP1;P1;durP2;ratioP2;P2;SDS_P1;SDS_P2;PMS_P1;PMS_P2;Temp;Humidity;BMP_temperature;BMP_pressure;BME280_temperature;BME280_humidity;BME280_pressure;Samples;Min_cycle;Max_cycle;Signal;HPM_P1;HPM_P2
2023/06/05 00:02:01;;;;;;;9.32;5.93;;;10.90;99.90;;;;;;4995408;28;20514;-73
2023/06/05 00:04:29;;;;;;;12.88;8.27;;;10.90;99.90;;;;;;4994937;28;20116;-73
2023/06/05 00:06:56;;;;;;;11.40;7.22;;;10.90;99.90;;;;;;4978687;28;20042;-72
2023/06/05 00:09:22;;;;;;;13.27;8.50;;;10.90;99.90;;;;;;4962926;28;20046;-73
2023/06/05 00:11:48;;;;;;;9.73;6.03;;;10.80;99.90;;;;;;4994954;28;20038;-74
2023/06/05 00:14:14;;;;;;;11.25;7.03;;;10.80;99.90;;;;;;4995156;28;20050;-73
2023/06/05 00:16:40;;;;;;;11.45;7.18;;;10.70;99.90;;;;;;4962786;28;20042;-73
2023/06/05 00:19:06;;;;;;;11.88;7.60;;;10.70;99.90;;;;;;4994764;28;20050;-72
2023/06/05 00:21:32;;;;;;;11.27;8.02;;;10.80;99.90;;;;;;4994943;28;20387;-73
2023/06/05 00:23:58;;;;;;;11.73;7.95;;;10.70;99.90;;;;;;4995033;28;20034;-72
2023/06/05 00:26:26;;;;;;;12.35;8.00;;;10.70;99.90;;;;;;4994735;28;20494;-72
2023/06/05 00:28:51;;;;;;;10.32;6.10;;;10.70;99.90;;;;;;4994642;28;20073;-72
2023/06/05 00:31:18;;;;;;;12.85;8.18;;;10.70;99.90;;;;;;4962358;28;20125;-73
2023/06/05 00:33:44;;;;;;;13.07;7.72;;;10.70;99.90;;;;;;4994754;28;20046;-72
2023/06/05 00:36:11;;;;;;;11.23;6.97;;;10.70;99.90;;;;;;4978555;28;20042;-72
2023/06/05 00:38:36;;;;;;;13.65;9.52;;;10.70;99.90;;;;;;4994092;28;20050;-72
2023/06/05 00:41:02;;;;;;;9.00;6.97;;;10.70;99.90;;;;;;4994336;28;20097;-72
2023/06/05 00:43:28;;;;;;;8.98;6.22;;;10.70;99.90;;;;;;4978245;28;20042;-73
2023/06/05 00:46:02;;;;;;;11.90;8.45;;;10.70;99.90;;;;;;4994322;28;20045;-72
2023/06/05 00:48:29;;;;;;;13.70;9.68;;;10.70;99.90;;;;;;4994335;28;20041;-72
2023/06/05 00:50:56;;;;;;;12.85;8.60;;;10.70;99.90;;;;;;4994146;28;20046;-72
2023/06/05 00:53:24;;;;;;;10.88;7.22;;;10.60;99.90;;;;;;4978065;28;20046;-72
2023/06/05 00:55:51;;;;;;;12.50;8.05;;;10.60;99.90;;;;;;4994143;28;20065;-72
2023/06/05 00:58:17;;;;;;;11.27;8.10;;;10.60;99.90;;;;;;4994277;28;20085;-73
2023/06/05 01:00:45;;;;;;;12.48;9.10;;;10.60;99.90;;;;;;4993976;28;20418;-72
2023/06/05 01:03:12;;;;;;;11.68;9.20;;;10.70;99.90;;;;;;4994274;28;20128;-72
2023/06/05 01:05:38;;;;;;;14.00;9.20;;;10.60;99.90;;;;;;4977804;28;20046;-72
2023/06/05 01:08:05;;;;;;;12.10;8.57;;;10.50;99.90;;;;;;4993784;28;20109;-72
2023/06/05 01:10:32;;;;;;;12.57;9.57;;;10.50;99.90;;;;;;4993979;28;20046;-72
2023/06/05 01:13:00;;;;;;;15.13;10.52;;;10.40;99.90;;;;;;4993877;28;20050;-72
2023/06/05 01:15:29;;;;;;;16.55;11.13;;;10.30;99.90;;;;;;4993927;28;20049;-73
2023/06/05 01:18:00;;;;;;;12.25;9.10;;;10.20;99.90;;;;;;4994308;28;20045;-73
2023/06/05 01:20:38;;;;;;;14.80;9.70;;;10.20;99.90;;;;;;4993623;28;20073;-73
2023/06/05 01:23:08;;;;;;;16.95;11.88;;;10.20;99.90;;;;;;4977599;28;20061;-73
2023/06/05 01:25:36;;;;;;;13.73;9.25;;;10.10;99.90;;;;;;4993403;28;20034;-72
2023/06/05 01:28:20;;;;;;;17.70;11.65;;;10.10;99.90;;;;;;4977667;28;20053;-73
2023/06/05 01:31:00;;;;;;;12.45;8.50;;;10.00;99.90;;;;;;4977308;28;20038;-73
2023/06/05 01:33:44;;;;;;;15.43;10.75;;;9.90;99.90;;;;;;4993283;28;20046;-73
2023/06/05 01:36:14;;;;;;;12.60;8.90;;;10.00;99.90;;;;;;4993633;28;20128;-73
2023/06/05 01:38:42;;;;;;;13.10;9.27;;;10.00;99.90;;;;;;4977069;28;20081;-72
2023/06/05 01:41:10;;;;;;;13.93;10.23;;;10.00;99.90;;;;;;4993377;28;20042;-72
2023/06/05 01:43:37;;;;;;;20.98;12.98;;;9.90;99.90;;;;;;4993211;28;20035;-72
2023/06/05 01:46:07;;;;;;;12.70;8.80;;;9.90;99.90;;;;;;4993437;28;20038;-72
2023/06/05 01:48:33;;;;;;;12.32;9.02;;;9.90;99.90;;;;;;4993151;28;20498;-72
2023/06/05 01:51:00;;;;;;;15.80;11.70;;;9.90;99.90;;;;;;4992533;28;20487;-72
2023/06/05 01:53:27;;;;;;;13.48;8.90;;;9.90;99.90;;;;;;4993029;28;20049;-72
2023/06/05 01:55:56;;;;;;;18.15;10.35;;;9.90;99.90;;;;;;4993010;28;20117;-72
2023/06/05 01:58:23;;;;;;;16.45;10.65;;;9.90;99.90;;;;;;4977207;28;20092;-71
2023/06/05 02:00:49;;;;;;;15.70;10.75;;;9.90;99.90;;;;;;4976830;28;20046;-72
2023/06/05 02:03:15;;;;;;;15.93;10.27;;;9.90;99.90;;;;;;4976651;28;20096;-71
2023/06/05 02:05:42;;;;;;;15.07;10.50;;;9.90;99.90;;;;;;4976963;28;20133;-72
2023/06/05 02:08:09;;;;;;;14.02;9.50;;;9.90;99.90;;;;;;4976645;28;20046;-72
2023/06/05 02:10:37;;;;;;;16.13;11.35;;;9.90;99.90;;;;;;4992921;28;20494;-72
2023/06/05 02:13:03;;;;;;;14.80;9.65;;;9.80;99.90;;;;;;4992808;28;20050;-72
2023/06/05 02:15:32;;;;;;;15.93;10.45;;;9.80;99.90;;;;;;4992937;28;20046;-72
2023/06/05 02:17:58;;;;;;;15.48;10.90;;;9.80;99.90;;;;;;4992725;28;20054;-72
2023/06/05 02:20:28;;;;;;;14.90;10.77;;;9.70;99.90;;;;;;4976635;28;20175;-72
2023/06/05 02:22:54;;;;;;;16.90;11.18;;;9.70;99.90;;;;;;4992799;28;20038;-72
2023/06/05 02:25:21;;;;;;;16.40;10.77;;;9.70;99.90;;;;;;4976484;28;20034;-72
2023/06/05 02:27:47;;;;;;;15.32;11.05;;;9.60;99.90;;;;;;4976286;28;20047;-72
2023/06/05 02:30:13;;;;;;;15.02;11.00;;;9.60;99.90;;;;;;4992715;28;20129;-72
2023/06/05 02:32:43;;;;;;;12.27;10.07;;;9.60;99.90;;;;;;4992452;28;20034;-72
2023/06/05 02:35:13;;;;;;;13.25;8.93;;;9.60;99.90;;;;;;4992750;28;20042;-73
2023/06/05 02:37:44;;;;;;;15.23;10.73;;;9.70;99.90;;;;;;4976329;28;20042;-73
2023/06/05 02:40:11;;;;;;;14.32;10.65;;;9.70;99.90;;;;;;4960999;28;20050;-73
2023/06/05 02:42:37;;;;;;;14.35;10.10;;;9.70;99.90;;;;;;4992360;28;20046;-73
2023/06/05 02:45:05;;;;;;;12.70;9.00;;;9.70;99.90;;;;;;4976262;28;20129;-72
2023/06/05 02:47:31;;;;;;;14.43;10.15;;;9.70;99.90;;;;;;4992200;28;20042;-73
2023/06/05 02:50:01;;;;;;;12.98;9.85;;;9.70;99.90;;;;;;4992311;28;20073;-73
2023/06/05 02:52:27;;;;;;;17.58;12.23;;;9.70;99.90;;;;;;4992262;28;20038;-73
2023/06/05 02:54:54;;;;;;;15.38;10.30;;;9.60;99.90;;;;;;4992288;28;20038;-73
2023/06/05 02:57:19;;;;;;;15.63;10.43;;;9.50;99.90;;;;;;4992233;28;20045;-73
2023/06/05 02:59:45;;;;;;;11.82;8.02;;;9.40;99.90;;;;;;4976143;28;20050;-73
2023/06/05 03:02:11;;;;;;;13.85;9.30;;;9.50;99.90;;;;;;4976949;28;20065;-73
2023/06/05 03:04:40;;;;;;;14.05;8.38;;;9.40;99.90;;;;;;4996077;28;20414;-73
2023/06/05 03:07:08;;;;;;;16.42;10.40;;;9.50;99.90;;;;;;4996063;28;20074;-73
2023/06/05 03:09:34;;;;;;;13.98;9.88;;;9.60;99.90;;;;;;4996125;28;20065;-72
2023/06/05 03:12:00;;;;;;;12.43;8.48;;;9.60;99.90;;;;;;4979837;28;20043;-72
2023/06/05 03:14:30;;;;;;;15.63;9.75;;;9.50;99.90;;;;;;4980003;28;20105;-73
2023/06/05 03:16:58;;;;;;;14.50;8.95;;;9.60;99.90;;;;;;4996288;28;20121;-73
2023/06/05 03:19:25;;;;;;;14.70;9.98;;;9.60;99.90;;;;;;4979764;28;20042;-72
2023/06/05 03:21:51;;;;;;;14.93;9.93;;;9.50;99.90;;;;;;4979625;28;20046;-73
2023/06/05 03:24:16;;;;;;;13.75;9.30;;;9.50;99.90;;;;;;4979485;28;20089;-72
2023/06/05 03:26:43;;;;;;;14.25;8.95;;;9.40;99.90;;;;;;4979359;28;20050;-72
2023/06/05 03:29:13;;;;;;;12.93;8.82;;;9.40;99.90;;;;;;4979579;28;20477;-72
2023/06/05 03:31:42;;;;;;;14.93;9.02;;;9.40;99.90;;;;;;4996018;28;20457;-72
2023/06/05 03:34:08;;;;;;;13.68;8.70;;;9.40;99.90;;;;;;4979766;28;20038;-73
2023/06/05 03:36:34;;;;;;;15.15;9.73;;;9.40;99.90;;;;;;4995649;28;20097;-72
2023/06/05 03:39:00;;;;;;;13.35;9.50;;;9.40;99.90;;;;;;4979376;28;20100;-72
2023/06/05 03:41:26;;;;;;;15.32;9.43;;;9.40;99.90;;;;;;4995468;28;20398;-72
2023/06/05 03:43:53;;;;;;;13.63;8.70;;;9.40;99.90;;;;;;4995634;28;20077;-72
2023/06/05 03:46:19;;;;;;;15.82;9.85;;;9.40;99.90;;;;;;4979288;28;20042;-72
2023/06/05 03:48:58;;;;;;;15.05;9.48;;;9.40;99.90;;;;;;4995343;28;20046;-72
2023/06/05 03:51:29;;;;;;;15.93;8.93;;;9.40;99.90;;;;;;4995201;28;20038;-72
2023/06/05 03:53:56;;;;;;;14.85;9.27;;;9.40;99.90;;;;;;4995562;28;20039;-72
2023/06/05 03:56:23;;;;;;;13.73;9.85;;;9.40;99.90;;;;;;4979385;28;20512;-72
2023/06/05 03:58:49;;;;;;;16.30;10.15;;;9.40;99.90;;;;;;4979012;28;20069;-72
2023/06/05 04:01:15;;;;;;;16.75;9.38;;;9.40;99.90;;;;;;4995479;28;20046;-72
2023/06/05 04:03:41;;;;;;;14.20;8.88;;;9.40;99.90;;;;;;4995367;28;20048;-72
2023/06/05 04:06:08;;;;;;;16.13;9.20;;;9.50;99.90;;;;;;4978906;28;20101;-72
2023/06/05 04:08:34;;;;;;;13.20;9.27;;;9.60;99.90;;;;;;4995074;28;20046;-72
2023/06/05 04:11:00;;;;;;;15.02;9.50;;;9.50;99.90;;;;;;4978723;28;20050;-72
2023/06/05 04:13:26;;;;;;;15.30;9.40;;;9.50;99.90;;;;;;4994360;28;20038;-72
2023/06/05 04:15:52;;;;;;;18.25;9.13;;;9.50;99.90;;;;;;4953520;28;20054;-72
2023/06/05 04:18:18;;;;;;;15.52;9.55;;;9.60;99.90;;;;;;5012612;28;20049;-72
2023/06/05 04:20:43;;;;;;;14.32;9.52;;;9.60;99.90;;;;;;4998053;28;20045;-72
2023/06/05 04:23:09;;;;;;;12.90;9.05;;;9.60;99.90;;;;;;5014314;28;20108;-73
2023/06/05 04:25:35;;;;;;;13.50;9.45;;;9.70;99.90;;;;;;5014484;28;20045;-73
2023/06/05 04:28:01;;;;;;;14.40;9.32;;;9.70;99.90;;;;;;5014114;28;20079;-73
2023/06/05 04:30:29;;;;;;;12.68;8.98;;;9.70;99.90;;;;;;5014253;28;20038;-73
2023/06/05 04:32:55;;;;;;;13.77;8.82;;;9.80;99.90;;;;;;5014462;28;20497;-73
2023/06/05 04:35:22;;;;;;;12.82;8.55;;;9.80;99.90;;;;;;5014156;28;20046;-73
2023/06/05 04:37:50;;;;;;;14.68;9.52;;;9.80;99.90;;;;;;5014214;28;20120;-73
2023/06/05 04:40:19;;;;;;;13.95;9.10;;;9.90;99.90;;;;;;5014390;28;20045;-73
2023/06/05 04:42:45;;;;;;;15.20;9.75;;;9.90;99.90;;;;;;4997889;28;20465;-73
2023/06/05 04:45:11;;;;;;;17.52;9.75;;;9.90;99.90;;;;;;4997724;28;20053;-73
2023/06/05 04:47:37;;;;;;;13.15;9.18;;;10.00;99.90;;;;;;5014068;28;20099;-73
2023/06/05 04:50:05;;;;;;;15.85;9.68;;;10.00;99.90;;;;;;5014021;28;20112;-74
2023/06/05 04:52:32;;;;;;;14.07;9.65;;;10.10;99.90;;;;;;5014014;28;20045;-73
2023/06/05 04:55:01;;;;;;;14.98;10.07;;;10.10;99.90;;;;;;5014088;28;20108;-73
2023/06/05 04:57:27;;;;;;;14.05;10.05;;;10.20;99.90;;;;;;5013680;28;20076;-73
2023/06/05 04:59:54;;;;;;;15.40;10.07;;;10.30;99.90;;;;;;5013619;28;20048;-73
2023/06/05 05:02:20;;;;;;;13.68;9.13;;;10.40;99.90;;;;;;5013580;28;20038;-73
2023/06/05 05:04:46;;;;;;;14.38;10.02;;;10.60;99.90;;;;;;5013558;28;20042;-73
2023/06/05 05:07:16;;;;;;;15.52;9.50;;;10.90;99.90;;;;;;5013470;28;20081;-73
2023/06/05 05:09:45;;;;;;;13.27;9.18;;;11.20;99.90;;;;;;4974370;28;20520;-73
2023/06/05 05:12:11;;;;;;;14.43;9.43;;;11.70;99.90;;;;;;5013768;28;20042;-73
2023/06/05 05:14:38;;;;;;;14.20;9.65;;;11.70;99.90;;;;;;5013621;28;20040;-73
2023/06/05 05:17:04;;;;;;;12.07;8.68;;;11.70;99.90;;;;;;5013254;28;20077;-73
2023/06/05 05:19:30;;;;;;;12.25;8.38;;;12.10;99.90;;;;;;5013620;28;20080;-73
2023/06/05 05:21:56;;;;;;;12.93;9.20;;;12.20;99.90;;;;;;5013176;28;20042;-73
2023/06/05 05:24:22;;;;;;;13.50;8.90;;;12.40;99.90;;;;;;4980973;28;20063;-73
2023/06/05 05:26:49;;;;;;;10.75;7.20;;;12.60;99.90;;;;;;5012688;28;20062;-73
2023/06/05 05:29:15;;;;;;;13.48;8.10;;;12.90;99.90;;;;;;4996789;28;20096;-73
2023/06/05 05:31:41;;;;;;;12.07;7.78;;;13.20;99.90;;;;;;5014337;28;20041;-73
2023/06/05 05:34:06;;;;;;;12.90;7.70;;;13.60;99.90;;;;;;4997163;28;20045;-73
2023/06/05 05:36:33;;;;;;;10.90;7.65;;;13.70;99.90;;;;;;5013226;28;20038;-73
2023/06/05 05:38:59;;;;;;;11.90;7.45;;;14.10;99.90;;;;;;4996792;28;20052;-73
2023/06/05 05:41:26;;;;;;;10.15;6.82;;;14.10;99.90;;;;;;5012817;28;20049;-73
2023/06/05 05:43:55;;;;;;;9.93;6.88;;;14.70;99.90;;;;;;5012789;28;20125;-73
2023/06/05 05:46:20;;;;;;;12.07;6.72;;;14.60;99.90;;;;;;5012728;28;20133;-73
2023/06/05 05:48:49;;;;;;;11.80;6.78;;;15.00;99.90;;;;;;5012606;28;20050;-73
2023/06/05 05:51:15;;;;;;;11.55;6.90;;;15.20;99.90;;;;;;5012523;28;20052;-73
2023/06/05 05:53:41;;;;;;;9.88;6.90;;;16.00;99.90;;;;;;5012693;28;20053;-73
2023/06/05 05:56:07;;;;;;;9.98;6.22;;;15.40;99.90;;;;;;4996536;28;20041;-73
2023/06/05 05:58:32;;;;;;;10.57;6.07;;;15.50;99.90;;;;;;4996290;28;20069;-73
2023/06/05 06:01:01;;;;;;;9.43;6.15;;;15.30;99.90;;;;;;5012769;28;20485;-73
2023/06/05 06:03:32;;;;;;;9.40;6.13;;;15.20;99.90;;;;;;4996355;28;20498;-73
2023/06/05 06:05:58;;;;;;;8.80;6.00;;;15.70;99.90;;;;;;4996199;28;20039;-73
2023/06/05 06:08:24;;;;;;;9.38;6.50;;;16.20;99.90;;;;;;4995994;28;20064;-72
2023/06/05 06:10:50;;;;;;;8.73;5.60;;;16.40;99.90;;;;;;5012700;28;20046;-72
2023/06/05 06:13:16;;;;;;;10.55;6.47;;;16.50;99.90;;;;;;5012612;28;20049;-72
2023/06/05 06:15:42;;;;;;;9.70;6.63;;;16.50;99.90;;;;;;4996143;28;20141;-73
2023/06/05 06:18:08;;;;;;;9.55;6.78;;;16.10;99.90;;;;;;4995835;28;20049;-73
2023/06/05 06:20:34;;;;;;;9.93;7.05;;;16.40;99.90;;;;;;4995883;28;20045;-71
2023/06/05 06:23:02;;;;;;;10.43;6.63;;;15.90;99.90;;;;;;5012243;28;20041;-72
2023/06/05 06:25:31;;;;;;;9.77;6.55;;;15.80;99.90;;;;;;5012247;28;20048;-72
2023/06/05 06:28:01;;;;;;;9.43;6.63;;;15.80;99.90;;;;;;5011808;28;20090;-71
2023/06/05 06:30:27;;;;;;;11.27;6.10;;;16.00;99.90;;;;;;4995777;28;20128;-72
2023/06/05 06:32:57;;;;;;;9.25;5.85;;;16.50;99.90;;;;;;5012177;28;20042;-72
2023/06/05 06:35:27;;;;;;;8.82;6.07;;;16.60;99.90;;;;;;4995273;28;20049;-72
2023/06/05 06:37:54;;;;;;;7.75;5.30;;;16.80;99.90;;;;;;4979328;28;20046;-72
2023/06/05 06:40:20;;;;;;;10.18;5.82;;;17.00;99.90;;;;;;5012101;28;20042;-71
2023/06/05 06:42:46;;;;;;;8.77;6.00;;;16.60;99.90;;;;;;5012118;28;20049;-72
2023/06/05 06:45:12;;;;;;;7.70;4.97;;;17.00;99.90;;;;;;5011983;28;20046;-71
2023/06/05 06:47:38;;;;;;;7.80;5.28;;;17.30;99.90;;;;;;5011939;28;20049;-71
2023/06/05 06:50:04;;;;;;;8.88;5.20;;;17.40;99.90;;;;;;4979702;28;20030;-71
2023/06/05 06:52:30;;;;;;;7.97;5.13;;;18.20;99.90;;;;;;5012150;28;20046;-71
2023/06/05 06:54:56;;;;;;;9.07;5.43;;;18.30;99.90;;;;;;5012113;28;20125;-72
2023/06/05 06:57:22;;;;;;;9.63;5.38;;;18.40;99.90;;;;;;5011831;28;20054;-71
2023/06/05 06:59:48;;;;;;;8.05;4.63;;;18.20;99.90;;;;;;5011973;28;20054;-71
2023/06/05 07:02:16;;;;;;;8.18;5.43;;;18.30;99.90;;;;;;5012413;28;20398;-71
2023/06/05 07:04:43;;;;;;;8.68;4.70;;;18.50;99.40;;;;;;4995727;28;20072;-72
2023/06/05 07:07:13;;;;;;;8.10;5.28;;;18.30;99.90;;;;;;5011969;28;20472;-72
2023/06/05 07:09:40;;;;;;;8.35;4.50;;;18.00;99.90;;;;;;5011809;28;20112;-72
2023/06/05 07:12:09;;;;;;;8.48;4.50;;;18.10;99.90;;;;;;5011745;28;20124;-71
2023/06/05 07:14:35;;;;;;;8.15;4.72;;;18.20;99.90;;;;;;5011618;28;20048;-71
2023/06/05 07:17:02;;;;;;;8.05;4.93;;;18.30;99.90;;;;;;5011767;28;20045;-71
2023/06/05 07:19:31;;;;;;;7.18;4.25;;;17.90;99.90;;;;;;5011735;28;20048;-71
2023/06/05 07:21:58;;;;;;;9.88;4.90;;;18.70;99.90;;;;;;5011527;28;20049;-72
2023/06/05 07:24:25;;;;;;;6.72;4.32;;;18.80;99.90;;;;;;5011605;28;20038;-71
2023/06/05 07:26:55;;;;;;;6.75;4.25;;;18.70;99.90;;;;;;5011483;28;20050;-72
2023/06/05 07:29:25;;;;;;;9.32;4.60;;;19.00;99.90;;;;;;5011603;28;20053;-71
2023/06/05 07:31:52;;;;;;;7.20;4.85;;;19.50;99.40;;;;;;4995244;28;20045;-71
2023/06/05 07:34:22;;;;;;;8.25;4.80;;;19.30;98.00;;;;;;5011535;28;20049;-71
2023/06/05 07:36:50;;;;;;;6.85;4.57;;;19.00;97.90;;;;;;4995512;28;20406;-71
2023/06/05 07:39:16;;;;;;;7.35;4.75;;;19.10;99.20;;;;;;4995116;28;20045;-71
2023/06/05 07:41:42;;;;;;;8.60;4.82;;;19.10;98.90;;;;;;4995549;28;20038;-71
2023/06/05 07:44:13;;;;;;;7.00;4.60;;;19.00;98.80;;;;;;5011387;28;20045;-71
2023/06/05 07:46:46;;;;;;;8.20;5.00;;;19.00;99.60;;;;;;4995077;28;20038;-71
2023/06/05 07:49:12;;;;;;;7.97;4.20;;;19.00;98.80;;;;;;5012220;28;20034;-71
2023/06/05 07:51:39;;;;;;;7.82;4.30;;;19.00;99.80;;;;;;4998481;28;20120;-71
2023/06/05 07:54:06;;;;;;;7.85;4.57;;;19.40;99.90;;;;;;5014830;28;20041;-71
2023/06/05 07:56:33;;;;;;;7.97;4.80;;;19.80;97.80;;;;;;5014911;28;20092;-71
2023/06/05 07:59:03;;;;;;;7.22;4.18;;;19.00;96.60;;;;;;4998555;28;20038;-71
2023/06/05 08:01:30;;;;;;;7.75;4.10;;;19.20;98.20;;;;;;4998410;28;20048;-73
2023/06/05 08:03:56;;;;;;;6.63;4.18;;;19.60;97.70;;;;;;5015049;28;20042;-71
2023/06/05 08:06:24;;;;;;;7.68;4.10;;;19.30;97.70;;;;;;4998430;28;20048;-71
2023/06/05 08:08:50;;;;;;;7.32;4.35;;;19.70;98.00;;;;;;5014558;28;20096;-72
2023/06/05 08:11:16;;;;;;;7.80;4.53;;;19.90;97.20;;;;;;4998463;28;20056;-71
2023/06/05 08:13:42;;;;;;;7.85;4.75;;;19.60;97.10;;;;;;4998213;28;20046;-72
2023/06/05 08:16:07;;;;;;;7.50;4.65;;;19.90;96.50;;;;;;4982028;28;20092;-72
2023/06/05 08:18:33;;;;;;;7.20;4.20;;;20.00;95.90;;;;;;5014457;28;20107;-72
2023/06/05 08:20:59;;;;;;;6.80;4.18;;;20.10;96.90;;;;;;5014336;28;20475;-72
2023/06/05 08:23:26;;;;;;;6.53;4.05;;;20.30;96.00;;;;;;5014263;28;20108;-73
2023/06/05 08:25:53;;;;;;;7.53;4.65;;;20.30;95.40;;;;;;5014589;28;20513;-72
2023/06/05 08:28:18;;;;;;;8.25;4.18;;;20.10;94.60;;;;;;5014085;28;20133;-72
2023/06/05 08:30:44;;;;;;;6.95;3.80;;;20.20;96.20;;;;;;4997838;28;20176;-72
2023/06/05 08:33:10;;;;;;;7.10;3.97;;;20.70;95.50;;;;;;5014237;28;20041;-72
2023/06/05 08:35:40;;;;;;;7.70;4.07;;;21.20;94.40;;;;;;4997775;28;20100;-72
2023/06/05 08:38:07;;;;;;;8.55;4.28;;;21.40;92.10;;;;;;5014008;28;20124;-72
2023/06/05 08:40:33;;;;;;;7.30;4.50;;;21.30;92.20;;;;;;5014062;28;20042;-72
2023/06/05 08:43:03;;;;;;;6.68;4.35;;;21.10;91.60;;;;;;5014302;28;20042;-72
2023/06/05 08:45:30;;;;;;;7.43;3.97;;;21.00;91.70;;;;;;4998057;28;20042;-72
2023/06/05 08:48:00;;;;;;;7.13;4.20;;;21.20;93.20;;;;;;5013840;28;20050;-72
2023/06/05 08:50:28;;;;;;;7.30;3.88;;;21.40;90.70;;;;;;4997503;28;20038;-72
2023/06/05 08:52:58;;;;;;;7.63;4.30;;;21.60;91.90;;;;;;5013683;28;20052;-73
2023/06/05 08:55:25;;;;;;;8.35;4.28;;;21.20;91.40;;;;;;5013944;28;20433;-72
2023/06/05 08:57:52;;;;;;;7.60;4.20;;;21.10;91.80;;;;;;5014017;28;20566;-72
2023/06/05 09:00:18;;;;;;;8.45;4.10;;;21.20;92.30;;;;;;4997271;28;20517;-72
2023/06/05 09:02:46;;;;;;;6.80;4.15;;;21.30;92.00;;;;;;4997526;28;20041;-72
2023/06/05 09:05:13;;;;;;;6.20;3.65;;;21.40;91.00;;;;;;5013614;28;20050;-72
2023/06/05 09:07:39;;;;;;;6.38;3.85;;;21.20;92.00;;;;;;4997470;28;20038;-72
2023/06/05 09:10:06;;;;;;;6.38;3.72;;;21.00;91.50;;;;;;5013466;28;20042;-72
2023/06/05 09:12:54;;;;;;;8.00;3.92;;;21.10;91.80;;;;;;5013476;28;20045;-72
2023/06/05 09:15:28;;;;;;;6.95;4.35;;;21.40;91.40;;;;;;5013481;28;20080;-73
2023/06/05 09:18:05;;;;;;;8.35;3.88;;;21.30;90.30;;;;;;5013188;28;20046;-72
2023/06/05 09:20:34;;;;;;;7.75;3.60;;;21.50;89.70;;;;;;5013331;28;20148;-72
2023/06/05 09:23:04;;;;;;;7.90;3.80;;;21.70;90.60;;;;;;4997207;28;20060;-73
2023/06/05 09:25:47;;;;;;;7.20;3.80;;;21.90;90.40;;;;;;5013220;28;20041;-73
2023/06/05 09:28:15;;;;;;;8.85;3.80;;;21.80;89.80;;;;;;4996540;28;20054;-72
2023/06/05 09:30:55;;;;;;;7.78;3.83;;;21.70;90.20;;;;;;4980882;28;20053;-72
2023/06/05 09:33:21;;;;;;;5.95;3.80;;;22.00;88.90;;;;;;4997015;28;20121;-72
2023/06/05 09:35:49;;;;;;;8.45;3.90;;;22.20;87.10;;;;;;4996758;28;20045;-72
2023/06/05 09:38:34;;;;;;;7.75;4.00;;;22.20;87.70;;;;;;5013142;28;20046;-72
2023/06/05 09:41:05;;;;;;;9.57;3.80;;;22.10;84.00;;;;;;5012969;28;20418;-72
2023/06/05 09:43:31;;;;;;;6.63;4.00;;;22.00;87.20;;;;;;5013199;28;20525;-72
2023/06/05 09:45:56;;;;;;;6.63;3.40;;;22.00;83.30;;;;;;5012876;28;20084;-72
2023/06/05 09:48:22;;;;;;;6.22;3.50;;;21.90;85.50;;;;;;5012795;28;20050;-72
2023/06/05 09:50:48;;;;;;;8.15;3.80;;;21.90;85.30;;;;;;5013063;28;20042;-72
2023/06/05 09:53:20;;;;;;;6.63;3.40;;;22.10;88.10;;;;;;5012729;28;20041;-72
2023/06/05 09:55:45;;;;;;;6.32;3.50;;;22.30;87.60;;;;;;4996701;28;20050;-72
2023/06/05 09:58:13;;;;;;;8.02;3.47;;;22.40;85.40;;;;;;5012499;28;20053;-72
2023/06/05 10:00:41;;;;;;;7.97;3.85;;;22.20;84.70;;;;;;5012636;28;20052;-72
2023/06/05 10:03:16;;;;;;;8.32;3.75;;;22.10;84.80;;;;;;5012861;28;20137;-72
2023/06/05 10:05:44;;;;;;;6.15;3.65;;;22.40;85.80;;;;;;5012797;28;20053;-72
2023/06/05 10:08:13;;;;;;;6.53;3.72;;;22.40;83.70;;;;;;4996356;28;20140;-72
2023/06/05 10:10:39;;;;;;;8.18;3.90;;;22.40;84.00;;;;;;5012453;28;20045;-72
2023/06/05 10:13:05;;;;;;;5.90;3.40;;;22.30;83.70;;;;;;5011997;28;20045;-72
2023/06/05 10:15:32;;;;;;;7.35;3.50;;;22.30;85.00;;;;;;4980303;28;20394;-72
2023/06/05 10:18:00;;;;;;;6.78;3.55;;;22.60;83.50;;;;;;5012294;28;20042;-71
2023/06/05 10:20:27;;;;;;;7.63;3.63;;;22.50;81.30;;;;;;4995973;28;20048;-71
2023/06/05 10:22:53;;;;;;;6.93;3.42;;;22.40;83.10;;;;;;5012200;28;20045;-71
2023/06/05 10:25:21;;;;;;;6.25;3.10;;;22.50;83.00;;;;;;4979698;28;20111;-71
2023/06/05 10:28:25;;;;;;;6.38;3.17;;;22.60;82.00;;;;;;4995712;28;20061;-72
2023/06/05 10:31:04;;;;;;;6.68;3.30;;;22.50;81.10;;;;;;5012439;28;20085;-71
2023/06/05 10:34:04;;;;;;;6.97;3.70;;;22.60;80.40;;;;;;5012128;28;20042;-71
2023/06/05 10:36:41;;;;;;;7.60;3.55;;;22.30;81.40;;;;;;5012106;28;20049;-71
2023/06/05 10:39:11;;;;;;;6.20;3.40;;;22.40;81.60;;;;;;4995639;28;20042;-72
2023/06/05 10:41:37;;;;;;;5.60;3.30;;;22.50;81.20;;;;;;5012354;28;20367;-72
2023/06/05 10:44:03;;;;;;;6.65;3.40;;;22.70;80.40;;;;;;4995882;28;20406;-72
2023/06/05 10:46:34;;;;;;;7.05;3.28;;;22.50;80.10;;;;;;4995667;28;20041;-71
2023/06/05 10:49:19;;;;;;;6.55;3.10;;;22.60;80.50;;;;;;5011915;28;20048;-71
2023/06/05 10:51:53;;;;;;;7.82;3.55;;;22.60;81.30;;;;;;5011850;28;20124;-71
2023/06/05 10:54:22;;;;;;;8.55;3.28;;;22.50;79.60;;;;;;4995906;28;20462;-71
2023/06/05 10:56:51;;;;;;;6.65;3.40;;;22.60;81.50;;;;;;5011845;28;20045;-71
2023/06/05 10:59:20;;;;;;;7.65;3.10;;;22.70;79.00;;;;;;5011786;28;20151;-71
2023/06/05 11:02:08;;;;;;;5.50;3.00;;;22.70;78.80;;;;;;5012136;28;20077;-71
2023/06/05 11:04:55;;;;;;;8.07;3.50;;;22.60;80.60;;;;;;5011731;28;20053;-71
2023/06/05 11:07:29;;;;;;;7.30;3.70;;;22.50;77.30;;;;;;5010618;28;20053;-71
2023/06/05 11:10:01;;;;;;;5.97;3.30;;;22.70;79.70;;;;;;5011822;28;20038;-72
2023/06/05 11:12:42;;;;;;;6.47;3.03;;;22.90;77.70;;;;;;5011990;28;20152;-71
2023/06/05 11:15:13;;;;;;;6.67;3.13;;;22.90;77.50;;;;;;4995630;28;20405;-71
2023/06/05 11:17:46;;;;;;;12.15;3.35;;;22.80;76.90;;;;;;5011712;28;20042;-71
2023/06/05 11:20:21;;;;;;;7.75;3.40;;;22.70;77.90;;;;;;5012015;28;20464;-71
2023/06/05 11:22:53;;;;;;;9.95;3.40;;;22.80;77.00;;;;;;5011768;28;20042;-71
2023/06/05 11:25:21;;;;;;;7.60;3.50;;;22.80;77.00;;;;;;5015717;28;20052;-71
2023/06/05 11:28:08;;;;;;;11.85;3.40;;;23.10;78.30;;;;;;5015336;28;20053;-71
2023/06/05 11:30:45;;;;;;;16.27;4.03;;;22.90;77.70;;;;;;5001771;28;20046;-71
2023/06/05 11:33:15;;;;;;;5.18;2.95;;;22.90;78.70;;;;;;5015667;28;20512;-71
2023/06/05 11:35:45;;;;;;;19.35;3.90;;;23.20;78.40;;;;;;5015345;28;20037;-72
2023/06/05 11:38:10;;;;;;;6.15;3.20;;;23.10;76.00;;;;;;5015185;28;20056;-71
2023/06/05 11:40:37;;;;;;;6.28;3.30;;;23.20;75.90;;;;;;5015461;28;20045;-71
2023/06/05 11:43:07;;;;;;;5.50;3.00;;;23.20;75.30;;;;;;5015413;28;20124;-71
2023/06/05 11:45:35;;;;;;;61.67;6.32;;;23.20;75.60;;;;;;5015041;28;20050;-71
2023/06/05 11:48:11;;;;;;;29.27;4.38;;;23.30;75.10;;;;;;5015004;28;20054;-71
2023/06/05 11:50:39;;;;;;;8.07;3.40;;;23.30;75.30;;;;;;5014979;28;20034;-72
2023/06/05 11:53:11;;;;;;;9.20;3.22;;;23.50;73.30;;;;;;4998609;28;20046;-71
2023/06/05 11:55:53;;;;;;;6.13;3.15;;;23.20;71.30;;;;;;5014999;28;20120;-71
2023/06/05 11:58:35;;;;;;;26.65;4.25;;;22.90;75.20;;;;;;5015162;28;20441;-71
2023/06/05 12:01:17;;;;;;;8.45;2.90;;;22.80;76.90;;;;;;5014834;28;20052;-71
2023/06/05 12:03:45;;;;;;;24.02;4.10;;;23.10;76.30;;;;;;5014940;28;20128;-72
2023/06/05 12:06:15;;;;;;;7.63;3.30;;;23.30;76.00;;;;;;5014783;28;20042;-72
2023/06/05 12:08:42;;;;;;;22.17;3.35;;;22.90;74.10;;;;;;5014820;28;20110;-71
2023/06/05 12:11:25;;;;;;;5.53;2.90;;;23.20;75.50;;;;;;5014885;28;20486;-72
2023/06/05 12:13:56;;;;;;;6.65;3.30;;;23.30;75.10;;;;;;5014655;28;20038;-72
2023/06/05 12:16:38;;;;;;;6.20;3.00;;;23.20;74.10;;;;;;4998321;28;20100;-72
2023/06/05 12:19:15;;;;;;;31.58;4.15;;;23.40;74.30;;;;;;5014730;28;20049;-72
2023/06/05 12:21:41;;;;;;;8.25;3.28;;;23.50;75.30;;;;;;4998397;28;20048;-72
2023/06/05 12:24:07;;;;;;;27.63;4.35;;;23.50;75.10;;;;;;5014914;28;20041;-71
2023/06/05 12:26:58;;;;;;;6.30;2.83;;;23.30;75.60;;;;;;4998174;28;20057;-72
2023/06/05 12:29:54;;;;;;;19.80;3.60;;;23.20;74.40;;;;;;5014260;28;20413;-72
2023/06/05 12:32:22;;;;;;;6.05;2.70;;;23.00;73.40;;;;;;5004112;28;20401;-71
2023/06/05 12:34:53;;;;;;;6.68;2.85;;;23.10;75.20;;;;;;5013413;28;20041;-72
2023/06/05 12:37:31;;;;;;;10.55;2.75;;;23.10;74.50;;;;;;5014377;28;20037;-72
2023/06/05 12:40:00;;;;;;;6.65;2.72;;;23.20;76.40;;;;;;5014184;28;20052;-72
2023/06/05 12:42:27;;;;;;;6.10;2.88;;;22.80;74.20;;;;;;5014096;28;20085;-71
2023/06/05 12:44:55;;;;;;;7.60;2.60;;;23.10;74.90;;;;;;4997784;28;20077;-72
2023/06/05 12:47:21;;;;;;;6.30;3.38;;;23.20;77.30;;;;;;5013757;28;20120;-72
2023/06/05 12:49:47;;;;;;;6.25;2.83;;;23.10;75.30;;;;;;5013865;28;20073;-72
2023/06/05 12:52:13;;;;;;;6.95;2.70;;;23.10;76.80;;;;;;5013990;28;20080;-72